createdAt,value
2023-05-11T00:00:27.102Z,101460.98
2023-05-11T00:04:36.992Z,101459.17
2023-05-11T00:08:45.704Z,101459.63
2023-05-11T00:12:44.962Z,101457.80
2023-05-11T00:16:47.387Z,101458.20
2023-05-11T00:20:49.692Z,101458.08
2023-05-11T00:24:59.512Z,101456.21
2023-05-11T00:28:59.601Z,101455.13
2023-05-11T00:33:09.221Z,101452.61
2023-05-11T00:37:09.094Z,101452.59
2023-05-11T00:40:58.771Z,101454.63
2023-05-11T00:45:08.410Z,101452.66
2023-05-11T00:49:18.319Z,101456.11
2023-05-11T00:53:28.051Z,101457.64
2023-05-11T00:57:10.618Z,101459.45
2023-05-11T01:01:20.608Z,101457.77
2023-05-11T01:05:30.353Z,101459.56
2023-05-11T01:09:45.976Z,101457.02
2023-05-11T01:13:58.269Z,101456.99
2023-05-11T01:18:14.019Z,101457.66
2023-05-11T01:22:23.753Z,101457.61
2023-05-11T01:26:51.673Z,101458.24
2023-05-11T01:31:06.284Z,101461.35
2023-05-11T01:35:18.809Z,101463.55
2023-05-11T01:39:28.775Z,101465.48
2023-05-11T01:43:32.201Z,101467.45
2023-05-11T01:47:40.118Z,101465.82
2023-05-11T01:51:52.207Z,101472.91
2023-05-11T01:55:30.865Z,101472.70
2023-05-11T01:59:30.879Z,101472.13
2023-05-11T02:03:40.281Z,101476.77
2023-05-11T02:07:49.999Z,101477.66
2023-05-11T02:11:48.061Z,101478.64
2023-05-11T02:15:57.730Z,101481.64
2023-05-11T02:20:07.311Z,101487.27
2023-05-11T02:24:16.754Z,101485.05
2023-05-11T02:28:09.125Z,101483.42
2023-05-11T02:32:18.489Z,101484.08
2023-05-11T02:36:28.108Z,101487.01
2023-05-11T02:40:40.495Z,101489.48
2023-05-11T02:44:48.723Z,101494.09
2023-05-11T02:49:00.781Z,101493.41
2023-05-11T02:53:01.634Z,101493.29
2023-05-11T02:57:04.040Z,101493.59
2023-05-11T03:01:13.753Z,101497.55
2023-05-11T03:05:12.765Z,101499.03
2023-05-11T03:09:22.265Z,101501.15
2023-05-11T03:12:58.479Z,101496.45
2023-05-11T03:16:51.490Z,101500.48
2023-05-11T03:20:44.135Z,101501.62
2023-05-11T03:24:43.668Z,101506.41
2023-05-11T03:28:39.707Z,101505.23
2023-05-11T03:32:44.519Z,101507.69
2023-05-11T03:36:43.986Z,101510.30
2023-05-11T03:40:35.186Z,101510.85
2023-05-11T03:44:44.808Z,101514.34
2023-05-11T03:48:20.636Z,101516.23
2023-05-11T03:52:13.533Z,101523.40
2023-05-11T03:56:22.923Z,101527.91
2023-05-11T04:00:33.430Z,101527.18
2023-05-11T04:04:28.680Z,101527.85
2023-05-11T04:08:18.424Z,101530.44
2023-05-11T04:12:20.666Z,101525.88
2023-05-11T04:16:08.664Z,101527.41
2023-05-11T04:20:08.957Z,101525.13
2023-05-11T04:24:11.819Z,101527.39
2023-05-11T04:27:29.316Z,101528.59
2023-05-11T04:31:38.888Z,101529.06
2023-05-11T04:35:23.803Z,101530.41
2023-05-11T04:39:06.008Z,101532.14
2023-05-11T04:43:07.762Z,101536.88
2023-05-11T04:46:43.711Z,101539.52
2023-05-11T04:50:34.995Z,101544.11
2023-05-11T04:54:36.833Z,101545.80
2023-05-11T04:58:19.224Z,101545.91
2023-05-11T05:02:28.883Z,101548.59
2023-05-11T05:06:05.898Z,101553.27
2023-05-11T05:09:54.506Z,101553.77
2023-05-11T05:13:39.473Z,101559.27
2023-05-11T05:17:24.802Z,101561.63
2023-05-11T05:20:49.045Z,101563.98
2023-05-11T05:24:18.294Z,101568.08
2023-05-11T05:27:21.737Z,101567.98
2023-05-11T05:31:07.720Z,101569.43
2023-05-11T05:33:59.143Z,101569.17
2023-05-11T05:37:31.454Z,101571.71
2023-05-11T05:40:52.919Z,101573.18
2023-05-11T05:43:38.382Z,101575.90
2023-05-11T05:46:50.032Z,101576.88
2023-05-11T05:50:26.947Z,101577.96
2023-05-11T05:53:41.417Z,101576.46
2023-05-11T05:56:32.098Z,101574.06
2023-05-11T06:00:08.873Z,101576.95
2023-05-11T06:03:46.566Z,101574.30
2023-05-11T06:06:57.964Z,101577.23
2023-05-11T06:10:12.880Z,101582.41
2023-05-11T06:13:42.570Z,101585.45
2023-05-11T06:17:28.501Z,101581.89
2023-05-11T06:20:58.623Z,101582.88
2023-05-11T06:24:48.220Z,101585.02
2023-05-11T06:28:36.604Z,101589.25
2023-05-11T06:32:21.209Z,101591.36
2023-05-11T06:36:10.619Z,101591.09
2023-05-11T06:40:21.233Z,101590.38
2023-05-11T06:44:13.259Z,101591.77
2023-05-11T06:47:42.142Z,101589.36
2023-05-11T06:51:25.219Z,101593.20
2023-05-11T06:55:07.373Z,101591.10
2023-05-11T06:58:51.674Z,101594.80
2023-05-11T07:02:34.478Z,101593.06
2023-05-11T07:05:46.017Z,101593.45
2023-05-11T07:09:38.390Z,101593.95
2023-05-11T07:13:48.898Z,101595.59
2023-05-11T07:17:44.029Z,101594.81
2023-05-11T07:21:42.733Z,101598.42
2023-05-11T07:25:25.742Z,101604.49
2023-05-11T07:29:18.433Z,101602.20
2023-05-11T07:32:55.347Z,101602.02
2023-05-11T07:35:58.076Z,101602.88
2023-05-11T07:39:37.384Z,101608.97
2023-05-11T07:43:38.010Z,101609.52
2023-05-11T07:47:29.046Z,101610.48
2023-05-11T07:51:14.204Z,101606.76
2023-05-11T07:54:02.606Z,101609.45
2023-05-11T07:56:51.308Z,101606.26
2023-05-11T08:00:33.475Z,101608.81
2023-05-11T08:04:25.367Z,101602.03
2023-05-11T08:07:50.774Z,101607.13
2023-05-11T08:11:01.545Z,101607.90
2023-05-11T08:14:14.681Z,101604.98
2023-05-11T08:17:53.098Z,101606.71
2023-05-11T08:21:42.573Z,101603.31
2023-05-11T08:24:42.008Z,101603.94
2023-05-11T08:28:18.769Z,101600.31
2023-05-11T08:32:06.141Z,101598.48
2023-05-11T08:35:47.028Z,101598.12
2023-05-11T08:39:43.287Z,101596.64
2023-05-11T08:43:17.596Z,101595.71
2023-05-11T08:47:21.875Z,101597.83
2023-05-11T08:50:37.238Z,101595.25
2023-05-11T08:54:01.763Z,101590.00
2023-05-11T08:57:51.279Z,101588.13
2023-05-11T09:01:22.432Z,101586.02
2023-05-11T09:05:01.835Z,101588.33
2023-05-11T09:08:40.986Z,101582.31
2023-05-11T09:12:41.455Z,101582.23
2023-05-11T09:16:37.309Z,101582.95
2023-05-11T09:20:35.182Z,101578.45
2023-05-11T09:23:50.358Z,101579.15
2023-05-11T09:27:10.980Z,101577.48
2023-05-11T09:30:43.749Z,101579.27
2023-05-11T09:34:53.259Z,101578.20
2023-05-11T09:38:24.881Z,101578.65
2023-05-11T09:41:40.836Z,101574.56
2023-05-11T09:44:42.343Z,101573.43
2023-05-11T09:47:50.163Z,101572.70
2023-05-11T09:51:04.736Z,101572.92
2023-05-11T09:54:40.485Z,101571.12
2023-05-11T09:58:23.443Z,101568.36
2023-05-11T10:01:10.299Z,101568.70
2023-05-11T10:04:00.262Z,101570.02
2023-05-11T10:07:48.466Z,101565.19
2023-05-11T10:11:57.684Z,101562.52
2023-05-11T10:15:35.082Z,101562.83
2023-05-11T10:18:59.846Z,101559.20
2023-05-11T10:22:32.606Z,101558.54
2023-05-11T10:26:15.192Z,101556.64
2023-05-11T10:30:14.554Z,101558.35
2023-05-11T10:33:57.827Z,101554.33
2023-05-11T10:37:01.400Z,101552.89
2023-05-11T10:39:56.761Z,101552.14
2023-05-11T10:43:55.844Z,101552.56
2023-05-11T10:47:35.246Z,101548.58
2023-05-11T10:51:57.855Z,101547.36
2023-05-11T10:55:46.259Z,101539.38
2023-05-11T10:59:32.888Z,101543.08
2023-05-11T11:02:45.367Z,101544.84
2023-05-11T11:06:16.324Z,101541.35
2023-05-11T11:10:21.803Z,101544.84
2023-05-11T11:14:14.516Z,101539.45
2023-05-11T11:17:54.057Z,101544.31
2023-05-11T11:21:50.929Z,101540.63
2023-05-11T11:25:58.883Z,101545.52
2023-05-11T11:29:44.130Z,101547.50
2023-05-11T11:33:53.776Z,101547.77
2023-05-11T11:37:41.195Z,101549.59
2023-05-11T11:41:11.953Z,101549.98
2023-05-11T11:44:19.265Z,101546.08
2023-05-11T11:47:58.190Z,101544.33
2023-05-11T11:51:15.036Z,101544.77
2023-05-11T11:55:35.974Z,101546.02
2023-05-11T11:59:43.874Z,101545.59
2023-05-11T12:03:15.096Z,101549.54
2023-05-11T12:06:02.825Z,101547.51
2023-05-11T12:09:22.319Z,101548.34
2023-05-11T12:12:59.861Z,101551.22
2023-05-11T12:15:49.978Z,101545.10
2023-05-11T12:19:12.491Z,101545.78
2023-05-11T12:23:04.208Z,101548.44
2023-05-11T12:26:30.346Z,101547.07
2023-05-11T12:29:40.921Z,101549.08
2023-05-11T12:32:13.141Z,101544.09
2023-05-11T12:34:57.665Z,101542.94
2023-05-11T12:38:05.673Z,101538.48
2023-05-11T12:41:16.184Z,101545.36
2023-05-11T12:44:31.015Z,101544.22
2023-05-11T12:47:41.517Z,101545.55
2023-05-11T12:51:14.306Z,101543.08
2023-05-11T12:54:05.198Z,101542.89
2023-05-11T12:57:32.951Z,101543.74
2023-05-11T13:00:59.979Z,101541.08
2023-05-11T13:03:46.346Z,101539.99
2023-05-11T13:06:20.229Z,101535.36
2023-05-11T13:09:24.341Z,101536.77
2023-05-11T13:12:17.553Z,101540.08
2023-05-11T13:15:39.958Z,101534.80
2023-05-11T13:19:37.551Z,101533.73
2023-05-11T13:22:19.443Z,101529.86
2023-05-11T13:25:09.357Z,101527.39
2023-05-11T13:28:38.350Z,101525.10
2023-05-11T13:31:53.564Z,101526.58
2023-05-11T13:34:47.271Z,101526.20
2023-05-11T13:37:35.931Z,101525.03
2023-05-11T13:40:25.408Z,101523.39
2023-05-11T13:43:01.889Z,101521.79
2023-05-11T13:45:42.832Z,101516.61
2023-05-11T13:48:46.141Z,101512.06
2023-05-11T13:52:11.769Z,101510.36
2023-05-11T13:54:46.130Z,101509.62
2023-05-11T13:57:35.481Z,101510.34
2023-05-11T14:00:39.237Z,101509.38
2023-05-11T14:03:12.717Z,101510.34
2023-05-11T14:06:04.780Z,101509.30
2023-05-11T14:08:38.179Z,101511.20
2023-05-11T14:11:39.309Z,101507.64
2023-05-11T14:14:36.466Z,101510.37
2023-05-11T14:17:18.830Z,101507.05
2023-05-11T14:19:49.867Z,101504.86
2023-05-11T14:22:18.313Z,101507.33
2023-05-11T14:24:50.063Z,101504.77
2023-05-11T14:27:19.320Z,101506.33
2023-05-11T14:29:47.826Z,101504.96
2023-05-11T14:32:16.198Z,101502.71
2023-05-11T14:34:44.765Z,101501.48
2023-05-11T14:37:16.133Z,101500.77
2023-05-11T14:39:50.636Z,101500.15
2023-05-11T14:42:19.183Z,101506.23
2023-05-11T14:45:17.992Z,101503.21
2023-05-11T14:48:19.826Z,101501.29
2023-05-11T14:51:26.387Z,101495.22
2023-05-11T14:54:20.664Z,101495.00
2023-05-11T14:57:49.120Z,101496.20
2023-05-11T15:01:31.361Z,101501.52
2023-05-11T15:04:52.029Z,101501.88
2023-05-11T15:08:18.256Z,101501.59
2023-05-11T15:11:33.731Z,101500.17
2023-05-11T15:14:26.085Z,101495.98
2023-05-11T15:17:00.630Z,101499.60
2023-05-11T15:19:52.043Z,101498.83
2023-05-11T15:22:29.869Z,101497.95
2023-05-11T15:25:26.242Z,101495.14
2023-05-11T15:28:11.270Z,101495.20
2023-05-11T15:30:45.182Z,101495.48
2023-05-11T15:33:22.293Z,101494.91
2023-05-11T15:36:32.413Z,101494.67
2023-05-11T15:39:06.585Z,101497.55
2023-05-11T15:41:50.200Z,101498.30
2023-05-11T15:44:26.406Z,101501.73
2023-05-11T15:47:01.752Z,101506.42
2023-05-11T15:49:36.116Z,101506.80
2023-05-11T15:52:56.401Z,101503.71
2023-05-11T15:55:33.095Z,101503.35
2023-05-11T15:58:10.617Z,101505.31
2023-05-11T16:01:17.391Z,101505.30
2023-05-11T16:04:29.131Z,101508.35
2023-05-11T16:07:32.867Z,101508.64
2023-05-11T16:10:29.248Z,101509.48
2023-05-11T16:13:28.156Z,101508.02
2023-05-11T16:17:06.239Z,101506.21
2023-05-11T16:20:27.213Z,101511.52
2023-05-11T16:23:15.584Z,101508.13
2023-05-11T16:26:16.635Z,101506.44
2023-05-11T16:30:24.489Z,101504.55
2023-05-11T16:34:05.789Z,101504.43
2023-05-11T16:37:58.088Z,101497.73
2023-05-11T16:41:54.192Z,101500.14
2023-05-11T16:45:41.568Z,101500.39
2023-05-11T16:51:06.196Z,101496.80
2023-05-11T16:54:00.049Z,101497.48
2023-05-11T16:57:25.254Z,101497.48
2023-05-11T17:00:06.562Z,101496.48
2023-05-11T17:03:41.599Z,101500.38
2023-05-11T17:07:17.993Z,101502.58
2023-05-11T17:11:10.027Z,101508.25
2023-05-11T17:14:14.404Z,101508.88
2023-05-11T17:17:25.013Z,101512.65
2023-05-11T17:21:21.814Z,101511.39
2023-05-11T17:24:58.257Z,101512.92
2023-05-11T17:28:31.246Z,101514.77
2023-05-11T17:31:52.283Z,101518.89
2023-05-11T17:34:44.648Z,101516.55
2023-05-11T17:37:46.368Z,101516.89
2023-05-11T17:41:18.097Z,101515.65
2023-05-11T17:44:51.883Z,101522.42
2023-05-11T17:47:42.707Z,101525.23
2023-05-11T17:51:23.325Z,101528.70
2023-05-11T17:55:17.635Z,101527.55
2023-05-11T17:58:48.723Z,101531.38
2023-05-11T18:01:54.151Z,101537.47
2023-05-11T18:05:05.087Z,101536.11
2023-05-11T18:08:18.908Z,101536.23
2023-05-11T18:11:24.549Z,101538.49
2023-05-11T18:14:39.532Z,101541.02
2023-05-11T18:18:48.965Z,101539.85
2023-05-11T18:22:20.509Z,101545.08
2023-05-11T18:26:05.149Z,101544.23
2023-05-11T18:29:41.030Z,101549.36
2023-05-11T18:32:48.458Z,101550.67
2023-05-11T18:36:16.089Z,101553.98
2023-05-11T18:39:30.673Z,101556.69
2023-05-11T18:43:13.948Z,101559.75
2023-05-11T18:47:14.400Z,101565.33
2023-05-11T18:51:12.887Z,101568.84
2023-05-11T18:54:43.509Z,101570.08
2023-05-11T18:58:14.909Z,101574.47
2023-05-11T19:02:24.435Z,101579.80
2023-05-11T19:06:34.169Z,101585.81
2023-05-11T19:10:24.920Z,101588.77
2023-05-11T19:14:17.284Z,101590.45
2023-05-11T19:17:58.347Z,101592.13
2023-05-11T19:21:50.986Z,101594.35
2023-05-11T19:25:29.045Z,101595.66
2023-05-11T19:29:30.603Z,101599.70
2023-05-11T19:33:22.735Z,101604.59
2023-05-11T19:37:12.034Z,101608.29
2023-05-11T19:41:01.510Z,101610.54
2023-05-11T19:44:48.556Z,101611.95
2023-05-11T19:48:59.945Z,101613.09
2023-05-11T19:53:00.876Z,101614.88
2023-05-11T19:56:52.859Z,101617.49
2023-05-11T20:00:26.461Z,101619.84
2023-05-11T20:04:06.880Z,101620.11
2023-05-11T20:07:19.387Z,101618.63
2023-05-11T20:11:27.544Z,101618.20
2023-05-11T20:15:09.824Z,101619.80
2023-05-11T20:19:12.378Z,101619.17
2023-05-11T20:23:04.918Z,101625.23
2023-05-11T20:25:48.385Z,101629.63
2023-05-11T20:29:19.246Z,101630.48
2023-05-11T20:37:28.846Z,101634.31
2023-05-11T20:41:38.471Z,101637.58
2023-05-11T20:45:48.153Z,101639.00
2023-05-11T20:49:57.348Z,101637.09
2023-05-11T20:54:06.922Z,101641.05
2023-05-11T20:58:09.071Z,101642.39
2023-05-11T21:02:18.649Z,101642.47
2023-05-11T21:05:33.300Z,101648.98
2023-05-11T21:09:07.851Z,101649.21
2023-05-11T21:13:09.967Z,101653.05
2023-05-11T21:17:19.467Z,101656.11
2023-05-11T21:21:28.879Z,101663.54
2023-05-11T21:25:04.391Z,101663.77
2023-05-11T21:29:05.173Z,101661.48
2023-05-11T21:32:57.554Z,101663.79
2023-05-11T21:36:56.750Z,101664.77
2023-05-11T21:40:52.385Z,101671.09
2023-05-11T21:45:01.841Z,101675.12
2023-05-11T21:48:46.607Z,101678.37
2023-05-11T21:51:55.918Z,101678.05
2023-05-11T21:55:47.604Z,101680.15
2023-05-11T21:59:27.592Z,101682.75
2023-05-11T22:03:37.374Z,101685.77
2023-05-11T22:07:25.788Z,101688.88
2023-05-11T22:11:28.134Z,101692.80
2023-05-11T22:15:28.318Z,101691.92
2023-05-11T22:19:37.426Z,101694.21
2023-05-11T22:23:26.594Z,101696.23
2023-05-11T22:27:29.811Z,101698.22
2023-05-11T22:31:29.414Z,101702.15
2023-05-11T22:35:38.650Z,101706.83
2023-05-11T22:39:48.313Z,101706.36
2023-05-11T22:43:57.722Z,101709.65
2023-05-11T22:48:06.015Z,101711.66
2023-05-11T22:51:58.219Z,101711.27
2023-05-11T22:55:35.250Z,101714.20
2023-05-11T22:59:44.838Z,101712.08
2023-05-11T23:03:54.413Z,101713.59
2023-05-11T23:07:15.882Z,101714.77
2023-05-11T23:11:23.935Z,101713.73
2023-05-11T23:15:32.417Z,101713.97
2023-05-11T23:19:06.413Z,101716.02
2023-05-11T23:23:16.014Z,101716.59
2023-05-11T23:27:02.228Z,101719.62
2023-05-11T23:30:50.588Z,101715.19
2023-05-11T23:34:50.000Z,101720.17
2023-05-11T23:38:59.598Z,101719.12
2023-05-11T23:43:09.511Z,101720.58
2023-05-11T23:47:19.109Z,101724.09
2023-05-11T23:51:28.614Z,101727.80
2023-05-11T23:55:30.647Z,101725.61
2023-05-11T23:59:40.256Z,101722.19
